Columbia, South Carolina
Current Conditions -  °F | °C
As of 3:53 AM on Sunday 23 Nov 2014 (Local Time) from KCUB Reporting Station
Light Rain Light Rain  
Wind Chill: 48°   Ceiling: 9500
Heat Index: 48°   Visibility: 6mi
Dew Point: 46°   Wind: 3mph
Humidity: 93%   Direction: NA
Pressure: 30.23"   Gusts: NA
Location:  34°N, 81.04°W
Report Text: KCUB 230853Z AUTO VRB03KT 6SM -RA BR FEW042 BKN095 OVC110 09/08 A3023 RMK AO2 RAB08 SLP235 P0005 60009 T00890078 58014
Loading
Personal Weather Stations






























Interactive Weather Map New forecast layout! Learn more

10-Day Weather Forecast

Advertisements
Track Severe Weather on mobile